sensor_id;sensor_type;location;lat;lon;timestamp;P1;durP1;ratioP1;P2;durP2;ratioP2
23490;SDS011;14683;50.038;8.078;2023-04-25T05:21:05;16.40;;;6.65;;
23490;SDS011;14683;50.038;8.078;2023-04-25T05:23:41;13.13;;;6.88;;
23490;SDS011;14683;50.038;8.078;2023-04-25T05:26:42;16.02;;;6.72;;
23490;SDS011;14683;50.038;8.078;2023-04-25T05:29:26;13.60;;;6.50;;
23490;SDS011;14683;50.038;8.078;2023-04-25T05:32:22;13.02;;;6.20;;
23490;SDS011;14683;50.038;8.078;2023-04-25T05:34:49;19.20;;;6.32;;
23490;SDS011;14683;50.038;8.078;2023-04-25T05:37:27;18.23;;;6.93;;
23490;SDS011;14683;50.038;8.078;2023-04-25T05:40:04;17.38;;;7.80;;
23490;SDS011;14683;50.038;8.078;2023-04-25T05:42:52;12.00;;;6.15;;
23490;SDS011;14683;50.038;8.078;2023-04-25T05:45:37;17.63;;;7.55;;
23490;SDS011;14683;50.038;8.078;2023-04-25T05:48:27;16.85;;;7.10;;
23490;SDS011;14683;50.038;8.078;2023-04-25T05:51:05;14.93;;;6.43;;
23490;SDS011;14683;50.038;8.078;2023-04-25T05:53:46;15.35;;;6.60;;
23490;SDS011;14683;50.038;8.078;2023-04-25T05:56:13;15.23;;;6.35;;
23490;SDS011;14683;50.038;8.078;2023-04-25T05:58:40;20.90;;;6.88;;
23490;SDS011;14683;50.038;8.078;2023-04-25T06:01:07;16.90;;;6.70;;
23490;SDS011;14683;50.038;8.078;2023-04-25T06:03:34;19.52;;;8.23;;
23490;SDS011;14683;50.038;8.078;2023-04-25T06:06:00;17.15;;;6.90;;
23490;SDS011;14683;50.038;8.078;2023-04-25T06:10:52;18.58;;;7.13;;
23490;SDS011;14683;50.038;8.078;2023-04-25T06:15:44;14.38;;;7.57;;
23490;SDS011;14683;50.038;8.078;2023-04-25T06:18:11;19.92;;;9.27;;
23490;SDS011;14683;50.038;8.078;2023-04-25T06:20:37;20.40;;;8.50;;
23490;SDS011;14683;50.038;8.078;2023-04-25T06:25:49;13.95;;;6.53;;
23490;SDS011;14683;50.038;8.078;2023-04-25T06:30:42;14.77;;;6.22;;
23490;SDS011;14683;50.038;8.078;2023-04-25T06:33:12;16.02;;;7.18;;
23490;SDS011;14683;50.038;8.078;2023-04-25T06:35:39;15.35;;;7.00;;
23490;SDS011;14683;50.038;8.078;2023-04-25T06:38:07;14.80;;;6.35;;
23490;SDS011;14683;50.038;8.078;2023-04-25T06:40:35;17.70;;;6.55;;
23490;SDS011;14683;50.038;8.078;2023-04-25T06:43:01;13.43;;;5.50;;
23490;SDS011;14683;50.038;8.078;2023-04-25T06:45:47;21.85;;;6.65;;
23490;SDS011;14683;50.038;8.078;2023-04-25T06:50:39;13.80;;;6.47;;
23490;SDS011;14683;50.038;8.078;2023-04-25T06:55:30;12.10;;;6.35;;
23490;SDS011;14683;50.038;8.078;2023-04-25T06:58:07;11.63;;;5.75;;
23490;SDS011;14683;50.038;8.078;2023-04-25T07:01:05;9.40;;;5.07;;
23490;SDS011;14683;50.038;8.078;2023-04-25T07:03:32;10.52;;;4.65;;
23490;SDS011;14683;50.038;8.078;2023-04-25T07:06:02;8.25;;;4.35;;
23490;SDS011;14683;50.038;8.078;2023-04-25T07:10:56;6.93;;;4.22;;
23490;SDS011;14683;50.038;8.078;2023-04-25T07:15:48;4.72;;;4.20;;
23490;SDS011;14683;50.038;8.078;2023-04-25T07:18:15;8.88;;;4.35;;
23490;SDS011;14683;50.038;8.078;2023-04-25T07:23:07;7.90;;;3.80;;
23490;SDS011;14683;50.038;8.078;2023-04-25T07:25:34;7.88;;;4.00;;
23490;SDS011;14683;50.038;8.078;2023-04-25T07:28:01;6.85;;;3.85;;
23490;SDS011;14683;50.038;8.078;2023-04-25T07:32:54;6.15;;;3.40;;
23490;SDS011;14683;50.038;8.078;2023-04-25T07:40:17;4.43;;;2.75;;
23490;SDS011;14683;50.038;8.078;2023-04-25T07:42:47;5.53;;;3.22;;
23490;SDS011;14683;50.038;8.078;2023-04-25T07:45:17;3.60;;;2.67;;
23490;SDS011;14683;50.038;8.078;2023-04-25T07:50:10;9.23;;;2.90;;
23490;SDS011;14683;50.038;8.078;2023-04-25T07:52:37;5.93;;;3.20;;
23490;SDS011;14683;50.038;8.078;2023-04-25T07:55:15;8.75;;;3.08;;
23490;SDS011;14683;50.038;8.078;2023-04-25T07:57:51;5.95;;;3.17;;
23490;SDS011;14683;50.038;8.078;2023-04-25T08:02:50;7.88;;;3.15;;
23490;SDS011;14683;50.038;8.078;2023-04-25T08:05:17;7.05;;;3.00;;
23490;SDS011;14683;50.038;8.078;2023-04-25T08:07:47;8.25;;;3.30;;
23490;SDS011;14683;50.038;8.078;2023-04-25T08:12:40;10.02;;;3.05;;
23490;SDS011;14683;50.038;8.078;2023-04-25T08:15:07;8.77;;;4.22;;
23490;SDS011;14683;50.038;8.078;2023-04-25T08:17:37;5.35;;;2.65;;
23490;SDS011;14683;50.038;8.078;2023-04-25T08:22:31;3.65;;;2.40;;
23490;SDS011;14683;50.038;8.078;2023-04-25T08:25:17;6.43;;;3.10;;
23490;SDS011;14683;50.038;8.078;2023-04-25T08:30:09;6.27;;;3.03;;
23490;SDS011;14683;50.038;8.078;2023-04-25T08:32:37;5.20;;;2.80;;
23490;SDS011;14683;50.038;8.078;2023-04-25T08:35:22;6.50;;;3.65;;
23490;SDS011;14683;50.038;8.078;2023-04-25T08:37:49;9.07;;;3.67;;
23490;SDS011;14683;50.038;8.078;2023-04-25T08:43:01;6.45;;;3.35;;
23490;SDS011;14683;50.038;8.078;2023-04-25T08:45:28;6.15;;;3.83;;
23490;SDS011;14683;50.038;8.078;2023-04-25T08:47:57;10.15;;;3.88;;
23490;SDS011;14683;50.038;8.078;2023-04-25T08:50:24;5.43;;;3.25;;
23490;SDS011;14683;50.038;8.078;2023-04-25T08:52:53;5.72;;;4.03;;
23490;SDS011;14683;50.038;8.078;2023-04-25T08:55:20;8.18;;;4.70;;
23490;SDS011;14683;50.038;8.078;2023-04-25T08:57:49;4.93;;;3.60;;
23490;SDS011;14683;50.038;8.078;2023-04-25T09:00:16;4.72;;;3.53;;
23490;SDS011;14683;50.038;8.078;2023-04-25T09:02:45;6.38;;;3.25;;
23490;SDS011;14683;50.038;8.078;2023-04-25T09:05:12;8.93;;;4.97;;
23490;SDS011;14683;50.038;8.078;2023-04-25T09:07:39;8.90;;;4.47;;
23490;SDS011;14683;50.038;8.078;2023-04-25T09:10:06;6.47;;;3.38;;
23490;SDS011;14683;50.038;8.078;2023-04-25T09:12:35;7.95;;;3.97;;
23490;SDS011;14683;50.038;8.078;2023-04-25T09:15:03;6.10;;;3.72;;
23490;SDS011;14683;50.038;8.078;2023-04-25T09:17:46;7.97;;;3.60;;
23490;SDS011;14683;50.038;8.078;2023-04-25T09:20:21;7.30;;;3.97;;
23490;SDS011;14683;50.038;8.078;2023-04-25T09:25:14;7.13;;;3.40;;
23490;SDS011;14683;50.038;8.078;2023-04-25T09:27:51;8.98;;;4.07;;
23490;SDS011;14683;50.038;8.078;2023-04-25T09:30:29;6.63;;;4.15;;
23490;SDS011;14683;50.038;8.078;2023-04-25T09:33:04;7.82;;;4.40;;
23490;SDS011;14683;50.038;8.078;2023-04-25T09:35:38;7.95;;;4.38;;
23490;SDS011;14683;50.038;8.078;2023-04-25T09:38:22;10.43;;;4.55;;
23490;SDS011;14683;50.038;8.078;2023-04-25T09:40:51;10.23;;;4.65;;
23490;SDS011;14683;50.038;8.078;2023-04-25T09:43:27;8.95;;;5.50;;
23490;SDS011;14683;50.038;8.078;2023-04-25T09:45:54;8.75;;;4.50;;
23490;SDS011;14683;50.038;8.078;2023-04-25T09:48:25;10.05;;;5.40;;
23490;SDS011;14683;50.038;8.078;2023-04-25T09:51:10;9.77;;;5.50;;
23490;SDS011;14683;50.038;8.078;2023-04-25T09:53:41;9.17;;;5.00;;
23490;SDS011;14683;50.038;8.078;2023-04-25T09:56:17;7.28;;;5.22;;
23490;SDS011;14683;50.038;8.078;2023-04-25T09:58:44;6.68;;;4.30;;
23490;SDS011;14683;50.038;8.078;2023-04-25T10:01:10;9.73;;;4.93;;
23490;SDS011;14683;50.038;8.078;2023-04-25T10:03:48;8.25;;;5.03;;
23490;SDS011;14683;50.038;8.078;2023-04-25T10:06:31;8.80;;;5.05;;
23490;SDS011;14683;50.038;8.078;2023-04-25T10:08:58;9.75;;;5.03;;
23490;SDS011;14683;50.038;8.078;2023-04-25T10:11:24;8.18;;;4.32;;
23490;SDS011;14683;50.038;8.078;2023-04-25T10:13:51;8.13;;;4.60;;
23490;SDS011;14683;50.038;8.078;2023-04-25T10:16:18;9.73;;;4.93;;
23490;SDS011;14683;50.038;8.078;2023-04-25T10:18:44;8.85;;;4.70;;
23490;SDS011;14683;50.038;8.078;2023-04-25T10:23:36;12.25;;;5.43;;
23490;SDS011;14683;50.038;8.078;2023-04-25T10:26:03;9.07;;;4.60;;
23490;SDS011;14683;50.038;8.078;2023-04-25T10:28:29;9.82;;;5.38;;
23490;SDS011;14683;50.038;8.078;2023-04-25T10:31:26;9.32;;;5.05;;
23490;SDS011;14683;50.038;8.078;2023-04-25T10:33:53;12.27;;;4.65;;
23490;SDS011;14683;50.038;8.078;2023-04-25T10:36:20;7.32;;;4.10;;
23490;SDS011;14683;50.038;8.078;2023-04-25T10:38:47;14.20;;;4.78;;
23490;SDS011;14683;50.038;8.078;2023-04-25T10:41:17;10.07;;;4.32;;
23490;SDS011;14683;50.038;8.078;2023-04-25T10:43:45;7.05;;;4.10;;
23490;SDS011;14683;50.038;8.078;2023-04-25T10:46:24;8.35;;;4.68;;
23490;SDS011;14683;50.038;8.078;2023-04-25T10:48:55;7.68;;;4.40;;
23490;SDS011;14683;50.038;8.078;2023-04-25T10:51:26;11.30;;;4.35;;
23490;SDS011;14683;50.038;8.078;2023-04-25T10:54:03;12.70;;;4.47;;
23490;SDS011;14683;50.038;8.078;2023-04-25T10:56:33;6.28;;;3.75;;
23490;SDS011;14683;50.038;8.078;2023-04-25T10:59:12;11.67;;;4.40;;
23490;SDS011;14683;50.038;8.078;2023-04-25T11:01:42;15.68;;;4.88;;
23490;SDS011;14683;50.038;8.078;2023-04-25T11:04:24;8.65;;;3.85;;
23490;SDS011;14683;50.038;8.078;2023-04-25T11:09:35;11.95;;;4.63;;
23490;SDS011;14683;50.038;8.078;2023-04-25T11:12:03;7.10;;;4.00;;
23490;SDS011;14683;50.038;8.078;2023-04-25T11:14:30;7.63;;;3.35;;
23490;SDS011;14683;50.038;8.078;2023-04-25T11:19:23;11.50;;;3.73;;
23490;SDS011;14683;50.038;8.078;2023-04-25T11:21:50;8.75;;;3.78;;
23490;SDS011;14683;50.038;8.078;2023-04-25T11:24:16;6.68;;;3.10;;
23490;SDS011;14683;50.038;8.078;2023-04-25T11:26:43;7.40;;;3.33;;
23490;SDS011;14683;50.038;8.078;2023-04-25T11:29:09;8.43;;;3.53;;
23490;SDS011;14683;50.038;8.078;2023-04-25T11:34:01;9.52;;;3.75;;
23490;SDS011;14683;50.038;8.078;2023-04-25T11:36:28;9.23;;;4.00;;
23490;SDS011;14683;50.038;8.078;2023-04-25T11:38:54;8.10;;;3.50;;
23490;SDS011;14683;50.038;8.078;2023-04-25T11:41:20;8.90;;;3.88;;
23490;SDS011;14683;50.038;8.078;2023-04-25T11:43:47;11.93;;;3.78;;
23490;SDS011;14683;50.038;8.078;2023-04-25T11:46:15;7.60;;;3.10;;
23490;SDS011;14683;50.038;8.078;2023-04-25T11:48:41;10.45;;;4.05;;
23490;SDS011;14683;50.038;8.078;2023-04-25T11:51:08;10.98;;;4.18;;
23490;SDS011;14683;50.038;8.078;2023-04-25T11:53:34;12.77;;;4.63;;
23490;SDS011;14683;50.038;8.078;2023-04-25T11:56:00;9.27;;;3.97;;
23490;SDS011;14683;50.038;8.078;2023-04-25T11:58:27;12.20;;;4.03;;
23490;SDS011;14683;50.038;8.078;2023-04-25T12:03:19;9.27;;;3.65;;
23490;SDS011;14683;50.038;8.078;2023-04-25T12:05:45;8.82;;;3.55;;
23490;SDS011;14683;50.038;8.078;2023-04-25T12:10:38;9.57;;;3.67;;
23490;SDS011;14683;50.038;8.078;2023-04-25T12:13:21;8.48;;;3.13;;
23490;SDS011;14683;50.038;8.078;2023-04-25T12:15:48;6.50;;;2.85;;
23490;SDS011;14683;50.038;8.078;2023-04-25T12:18:18;9.27;;;3.35;;
23490;SDS011;14683;50.038;8.078;2023-04-25T12:20:45;6.45;;;3.00;;
23490;SDS011;14683;50.038;8.078;2023-04-25T12:25:53;8.18;;;2.95;;
23490;SDS011;14683;50.038;8.078;2023-04-25T12:28:20;11.38;;;2.83;;
23490;SDS011;14683;50.038;8.078;2023-04-25T12:31:03;6.60;;;3.15;;
23490;SDS011;14683;50.038;8.078;2023-04-25T12:33:31;11.85;;;3.10;;
23490;SDS011;14683;50.038;8.078;2023-04-25T12:35:58;6.68;;;2.70;;
23490;SDS011;14683;50.038;8.078;2023-04-25T12:38:30;11.88;;;3.03;;
23490;SDS011;14683;50.038;8.078;2023-04-25T12:40:57;7.40;;;3.38;;
23490;SDS011;14683;50.038;8.078;2023-04-25T12:43:24;6.80;;;3.13;;
23490;SDS011;14683;50.038;8.078;2023-04-25T12:45:51;6.97;;;2.70;;
23490;SDS011;14683;50.038;8.078;2023-04-25T12:48:17;7.05;;;3.13;;
23490;SDS011;14683;50.038;8.078;2023-04-25T12:50:44;5.90;;;2.95;;
23490;SDS011;14683;50.038;8.078;2023-04-25T12:53:10;5.43;;;3.00;;
23490;SDS011;14683;50.038;8.078;2023-04-25T12:55:37;5.85;;;2.97;;
23490;SDS011;14683;50.038;8.078;2023-04-25T12:58:03;5.72;;;2.65;;
23490;SDS011;14683;50.038;8.078;2023-04-25T13:00:29;8.15;;;2.30;;
23490;SDS011;14683;50.038;8.078;2023-04-25T13:02:56;9.27;;;3.78;;
23490;SDS011;14683;50.038;8.078;2023-04-25T13:07:48;7.75;;;3.40;;
23490;SDS011;14683;50.038;8.078;2023-04-25T13:10:14;11.80;;;3.38;;
23490;SDS011;14683;50.038;8.078;2023-04-25T13:15:06;7.10;;;2.42;;
23490;SDS011;14683;50.038;8.078;2023-04-25T13:17:34;6.63;;;2.80;;
23490;SDS011;14683;50.038;8.078;2023-04-25T13:22:26;7.57;;;2.53;;
23490;SDS011;14683;50.038;8.078;2023-04-25T13:24:52;7.22;;;3.15;;
23490;SDS011;14683;50.038;8.078;2023-04-25T13:27:18;15.23;;;3.00;;
23490;SDS011;14683;50.038;8.078;2023-04-25T13:29:44;13.70;;;3.45;;
23490;SDS011;14683;50.038;8.078;2023-04-25T13:32:10;5.97;;;2.25;;
23490;SDS011;14683;50.038;8.078;2023-04-25T13:34:36;6.45;;;3.08;;
23490;SDS011;14683;50.038;8.078;2023-04-25T13:37:02;10.93;;;3.20;;
23490;SDS011;14683;50.038;8.078;2023-04-25T13:39:28;5.88;;;2.72;;
23490;SDS011;14683;50.038;8.078;2023-04-25T13:41:55;6.95;;;2.72;;
23490;SDS011;14683;50.038;8.078;2023-04-25T13:44:21;5.38;;;2.75;;
23490;SDS011;14683;50.038;8.078;2023-04-25T13:46:47;8.65;;;2.50;;
23490;SDS011;14683;50.038;8.078;2023-04-25T13:49:13;6.05;;;2.53;;
23490;SDS011;14683;50.038;8.078;2023-04-25T13:54:05;8.48;;;2.53;;
23490;SDS011;14683;50.038;8.078;2023-04-25T13:56:31;2.80;;;2.50;;
23490;SDS011;14683;50.038;8.078;2023-04-25T13:58:57;10.85;;;3.13;;
23490;SDS011;14683;50.038;8.078;2023-04-25T14:03:49;7.07;;;3.00;;
23490;SDS011;14683;50.038;8.078;2023-04-25T14:06:15;7.38;;;3.03;;
23490;SDS011;14683;50.038;8.078;2023-04-25T14:08:48;6.60;;;3.05;;
23490;SDS011;14683;50.038;8.078;2023-04-25T14:11:17;5.78;;;2.67;;
23490;SDS011;14683;50.038;8.078;2023-04-25T14:16:10;4.60;;;2.33;;
23490;SDS011;14683;50.038;8.078;2023-04-25T14:18:36;8.60;;;3.00;;
23490;SDS011;14683;50.038;8.078;2023-04-25T14:21:02;5.43;;;2.50;;
23490;SDS011;14683;50.038;8.078;2023-04-25T14:23:28;6.10;;;2.33;;
23490;SDS011;14683;50.038;8.078;2023-04-25T14:25:54;9.63;;;3.00;;
23490;SDS011;14683;50.038;8.078;2023-04-25T14:28:20;6.78;;;2.38;;
23490;SDS011;14683;50.038;8.078;2023-04-25T14:30:46;5.22;;;2.92;;
23490;SDS011;14683;50.038;8.078;2023-04-25T14:33:12;7.70;;;3.00;;
23490;SDS011;14683;50.038;8.078;2023-04-25T14:35:39;12.05;;;2.85;;
23490;SDS011;14683;50.038;8.078;2023-04-25T14:40:31;7.18;;;2.72;;
23490;SDS011;14683;50.038;8.078;2023-04-25T14:42:57;8.23;;;3.20;;
23490;SDS011;14683;50.038;8.078;2023-04-25T14:45:23;10.05;;;3.25;;
23490;SDS011;14683;50.038;8.078;2023-04-25T14:47:49;5.88;;;2.42;;
23490;SDS011;14683;50.038;8.078;2023-04-25T14:50:15;5.63;;;2.67;;
23490;SDS011;14683;50.038;8.078;2023-04-25T14:52:42;5.20;;;2.53;;
23490;SDS011;14683;50.038;8.078;2023-04-25T14:55:09;9.15;;;2.75;;
23490;SDS011;14683;50.038;8.078;2023-04-25T14:57:35;6.13;;;2.72;;
23490;SDS011;14683;50.038;8.078;2023-04-25T15:00:02;7.40;;;2.50;;
23490;SDS011;14683;50.038;8.078;2023-04-25T15:02:32;14.07;;;2.70;;
23490;SDS011;14683;50.038;8.078;2023-04-25T15:04:59;10.07;;;2.90;;
23490;SDS011;14683;50.038;8.078;2023-04-25T15:07:26;10.07;;;3.05;;
23490;SDS011;14683;50.038;8.078;2023-04-25T15:09:52;7.20;;;2.80;;
23490;SDS011;14683;50.038;8.078;2023-04-25T15:12:18;7.97;;;2.60;;
23490;SDS011;14683;50.038;8.078;2023-04-25T15:14:45;11.77;;;2.95;;
23490;SDS011;14683;50.038;8.078;2023-04-25T15:17:11;9.75;;;2.30;;
23490;SDS011;14683;50.038;8.078;2023-04-25T15:19:39;12.25;;;2.97;;
23490;SDS011;14683;50.038;8.078;2023-04-25T15:22:05;7.20;;;2.20;;
23490;SDS011;14683;50.038;8.078;2023-04-25T15:24:32;9.05;;;2.15;;
23490;SDS011;14683;50.038;8.078;2023-04-25T15:29:24;9.00;;;2.33;;
23490;SDS011;14683;50.038;8.078;2023-04-25T15:31:51;6.88;;;2.25;;
23490;SDS011;14683;50.038;8.078;2023-04-25T15:34:17;4.13;;;1.80;;
23490;SDS011;14683;50.038;8.078;2023-04-25T15:36:43;6.53;;;2.35;;
23490;SDS011;14683;50.038;8.078;2023-04-25T15:39:09;6.75;;;2.50;;
23490;SDS011;14683;50.038;8.078;2023-04-25T15:41:35;5.45;;;2.08;;
23490;SDS011;14683;50.038;8.078;2023-04-25T15:44:02;7.30;;;2.50;;
23490;SDS011;14683;50.038;8.078;2023-04-25T15:46:28;5.50;;;2.33;;
23490;SDS011;14683;50.038;8.078;2023-04-25T15:48:55;4.30;;;2.03;;
23490;SDS011;14683;50.038;8.078;2023-04-25T15:53:47;6.13;;;2.17;;
23490;SDS011;14683;50.038;8.078;2023-04-25T15:56:13;4.45;;;2.08;;
23490;SDS011;14683;50.038;8.078;2023-04-25T15:58:39;5.50;;;2.30;;
23490;SDS011;14683;50.038;8.078;2023-04-25T16:01:05;5.75;;;2.55;;
23490;SDS011;14683;50.038;8.078;2023-04-25T16:03:31;4.50;;;1.88;;
23490;SDS011;14683;50.038;8.078;2023-04-25T16:05:57;5.30;;;1.90;;
23490;SDS011;14683;50.038;8.078;2023-04-25T16:08:23;7.32;;;2.92;;
23490;SDS011;14683;50.038;8.078;2023-04-25T16:10:50;7.30;;;1.92;;
23490;SDS011;14683;50.038;8.078;2023-04-25T16:13:17;4.38;;;1.95;;
23490;SDS011;14683;50.038;8.078;2023-04-25T16:15:43;6.97;;;2.08;;
23490;SDS011;14683;50.038;8.078;2023-04-25T16:18:09;4.50;;;1.92;;
23490;SDS011;14683;50.038;8.078;2023-04-25T16:20:35;8.77;;;2.80;;
23490;SDS011;14683;50.038;8.078;2023-04-25T16:23:01;5.93;;;2.28;;
23490;SDS011;14683;50.038;8.078;2023-04-25T16:25:27;7.60;;;1.92;;
23490;SDS011;14683;50.038;8.078;2023-04-25T16:27:53;6.53;;;2.60;;
23490;SDS011;14683;50.038;8.078;2023-04-25T16:30:19;6.85;;;2.13;;
23490;SDS011;14683;50.038;8.078;2023-04-25T16:32:45;8.95;;;2.53;;
23490;SDS011;14683;50.038;8.078;2023-04-25T16:35:11;7.75;;;2.42;;
23490;SDS011;14683;50.038;8.078;2023-04-25T16:40:03;7.03;;;2.20;;
23490;SDS011;14683;50.038;8.078;2023-04-25T16:42:33;9.48;;;2.38;;
23490;SDS011;14683;50.038;8.078;2023-04-25T16:44:59;8.88;;;2.55;;
23490;SDS011;14683;50.038;8.078;2023-04-25T16:47:25;8.88;;;2.95;;
23490;SDS011;14683;50.038;8.078;2023-04-25T16:49:51;5.85;;;2.00;;
23490;SDS011;14683;50.038;8.078;2023-04-25T16:52:17;6.72;;;2.25;;
23490;SDS011;14683;50.038;8.078;2023-04-25T16:54:45;7.30;;;2.33;;
23490;SDS011;14683;50.038;8.078;2023-04-25T16:57:11;8.20;;;2.90;;
23490;SDS011;14683;50.038;8.078;2023-04-25T16:59:38;5.68;;;2.75;;
23490;SDS011;14683;50.038;8.078;2023-04-25T17:02:04;6.82;;;2.17;;
23490;SDS011;14683;50.038;8.078;2023-04-25T17:04:30;7.32;;;2.67;;
23490;SDS011;14683;50.038;8.078;2023-04-25T17:06:56;4.53;;;2.40;;
23490;SDS011;14683;50.038;8.078;2023-04-25T17:09:23;10.07;;;2.80;;
23490;SDS011;14683;50.038;8.078;2023-04-25T17:11:49;6.30;;;2.58;;
23490;SDS011;14683;50.038;8.078;2023-04-25T17:14:15;8.20;;;2.42;;
23490;SDS011;14683;50.038;8.078;2023-04-25T17:16:41;8.85;;;2.75;;
23490;SDS011;14683;50.038;8.078;2023-04-25T17:19:07;8.80;;;2.78;;
23490;SDS011;14683;50.038;8.078;2023-04-25T17:23:59;4.63;;;2.28;;
23490;SDS011;14683;50.038;8.078;2023-04-25T17:28:52;7.53;;;3.00;;
23490;SDS011;14683;50.038;8.078;2023-04-25T17:31:18;6.55;;;2.70;;
23490;SDS011;14683;50.038;8.078;2023-04-25T17:33:44;10.10;;;3.53;;
23490;SDS011;14683;50.038;8.078;2023-04-25T17:36:10;8.85;;;2.38;;
23490;SDS011;14683;50.038;8.078;2023-04-25T17:38:36;10.00;;;3.38;;
23490;SDS011;14683;50.038;8.078;2023-04-25T17:41:03;6.82;;;2.78;;
23490;SDS011;14683;50.038;8.078;2023-04-25T17:43:30;5.90;;;2.22;;
23490;SDS011;14683;50.038;8.078;2023-04-25T17:45:57;7.20;;;3.10;;
23490;SDS011;14683;50.038;8.078;2023-04-25T17:50:50;8.82;;;2.40;;
23490;SDS011;14683;50.038;8.078;2023-04-25T17:53:16;6.55;;;2.20;;
23490;SDS011;14683;50.038;8.078;2023-04-25T17:58:08;3.60;;;1.90;;
23490;SDS011;14683;50.038;8.078;2023-04-25T18:00:37;7.18;;;2.10;;
23490;SDS011;14683;50.038;8.078;2023-04-25T18:05:29;5.47;;;1.88;;
23490;SDS011;14683;50.038;8.078;2023-04-25T18:07:57;6.50;;;2.17;;
23490;SDS011;14683;50.038;8.078;2023-04-25T18:10:23;4.95;;;1.95;;
23490;SDS011;14683;50.038;8.078;2023-04-25T18:12:49;3.17;;;2.03;;
23490;SDS011;14683;50.038;8.078;2023-04-25T18:17:41;5.65;;;2.13;;
23490;SDS011;14683;50.038;8.078;2023-04-25T18:22:41;6.07;;;2.15;;
23490;SDS011;14683;50.038;8.078;2023-04-25T18:25:08;4.72;;;1.80;;
23490;SDS011;14683;50.038;8.078;2023-04-25T18:27:36;7.68;;;2.30;;
23490;SDS011;14683;50.038;8.078;2023-04-25T18:30:06;8.10;;;2.08;;
23490;SDS011;14683;50.038;8.078;2023-04-25T18:32:36;6.75;;;1.95;;
23490;SDS011;14683;50.038;8.078;2023-04-25T18:35:02;6.43;;;2.22;;
23490;SDS011;14683;50.038;8.078;2023-04-25T18:37:28;8.63;;;2.13;;
23490;SDS011;14683;50.038;8.078;2023-04-25T18:42:20;6.57;;;2.00;;
23490;SDS011;14683;50.038;8.078;2023-04-25T18:44:47;3.63;;;2.17;;
23490;SDS011;14683;50.038;8.078;2023-04-25T18:49:39;4.88;;;1.67;;
23490;SDS011;14683;50.038;8.078;2023-04-25T18:54:35;5.68;;;2.10;;
23490;SDS011;14683;50.038;8.078;2023-04-25T18:57:02;5.70;;;2.30;;
23490;SDS011;14683;50.038;8.078;2023-04-25T18:59:28;5.30;;;2.05;;
23490;SDS011;14683;50.038;8.078;2023-04-25T19:04:20;5.00;;;2.50;;
23490;SDS011;14683;50.038;8.078;2023-04-25T19:06:46;3.15;;;1.80;;
23490;SDS011;14683;50.038;8.078;2023-04-25T19:09:14;4.22;;;2.40;;
23490;SDS011;14683;50.038;8.078;2023-04-25T19:14:06;6.95;;;2.13;;
23490;SDS011;14683;50.038;8.078;2023-04-25T19:19:03;8.38;;;2.17;;
23490;SDS011;14683;50.038;8.078;2023-04-25T19:21:31;5.85;;;2.08;;
23490;SDS011;14683;50.038;8.078;2023-04-25T19:23:57;4.03;;;1.83;;
23490;SDS011;14683;50.038;8.078;2023-04-25T19:26:25;5.10;;;1.88;;
23490;SDS011;14683;50.038;8.078;2023-04-25T19:31:31;3.58;;;1.80;;
23490;SDS011;14683;50.038;8.078;2023-04-25T19:33:57;8.18;;;2.30;;
23490;SDS011;14683;50.038;8.078;2023-04-25T19:38:49;5.70;;;2.08;;
23490;SDS011;14683;50.038;8.078;2023-04-25T19:41:15;7.10;;;2.28;;
23490;SDS011;14683;50.038;8.078;2023-04-25T19:43:42;4.32;;;2.33;;
23490;SDS011;14683;50.038;8.078;2023-04-25T19:48:34;5.53;;;2.03;;
23490;SDS011;14683;50.038;8.078;2023-04-25T19:51:01;5.82;;;2.53;;
23490;SDS011;14683;50.038;8.078;2023-04-25T19:53:27;6.93;;;2.05;;
23490;SDS011;14683;50.038;8.078;2023-04-25T19:58:19;6.88;;;1.98;;
23490;SDS011;14683;50.038;8.078;2023-04-25T20:00:45;5.30;;;2.13;;
23490;SDS011;14683;50.038;8.078;2023-04-25T20:03:12;4.53;;;2.30;;
23490;SDS011;14683;50.038;8.078;2023-04-25T20:08:03;4.13;;;1.77;;
23490;SDS011;14683;50.038;8.078;2023-04-25T20:12:56;6.73;;;1.97;;
23490;SDS011;14683;50.038;8.078;2023-04-25T20:17:48;3.72;;;1.70;;
23490;SDS011;14683;50.038;8.078;2023-04-25T20:20:14;7.68;;;2.70;;
23490;SDS011;14683;50.038;8.078;2023-04-25T20:22:41;2.15;;;1.70;;
23490;SDS011;14683;50.038;8.078;2023-04-25T20:27:33;4.55;;;1.98;;
23490;SDS011;14683;50.038;8.078;2023-04-25T20:29:59;6.13;;;1.40;;
23490;SDS011;14683;50.038;8.078;2023-04-25T20:32:29;5.32;;;2.03;;
23490;SDS011;14683;50.038;8.078;2023-04-25T20:34:56;3.92;;;1.90;;
23490;SDS011;14683;50.038;8.078;2023-04-25T20:37:22;5.10;;;1.77;;
23490;SDS011;14683;50.038;8.078;2023-04-25T20:42:14;7.90;;;2.38;;
23490;SDS011;14683;50.038;8.078;2023-04-25T20:44:40;3.75;;;2.13;;
